sensor_id;sensor_type;location;lat;lon;timestamp;P1;durP1;ratioP1;P2;durP2;ratioP2
62110;SDS011;48102;47.526;19.072;2023-03-20T04:40:21;4.47;;;2.37;;
62110;SDS011;48102;47.526;19.072;2023-03-20T04:43:26;4.35;;;3.85;;
62110;SDS011;48102;47.526;19.072;2023-03-20T04:46:29;3.62;;;2.85;;
62110;SDS011;48102;47.526;19.072;2023-03-20T04:49:33;3.72;;;3.05;;
62110;SDS011;48102;47.526;19.072;2023-03-20T04:58:45;4.45;;;3.25;;
62110;SDS011;48102;47.526;19.072;2023-03-20T05:01:49;4.00;;;3.60;;
62110;SDS011;48102;47.526;19.072;2023-03-20T05:04:51;5.05;;;3.10;;
62110;SDS011;48102;47.526;19.072;2023-03-20T05:07:54;8.85;;;3.28;;
62110;SDS011;48102;47.526;19.072;2023-03-20T05:14:02;6.12;;;3.20;;
62110;SDS011;48102;47.526;19.072;2023-03-20T05:17:06;4.45;;;3.47;;
62110;SDS011;48102;47.526;19.072;2023-03-20T05:20:12;5.82;;;3.87;;
62110;SDS011;48102;47.526;19.072;2023-03-20T05:23:16;5.40;;;3.00;;
62110;SDS011;48102;47.526;19.072;2023-03-20T05:26:19;4.85;;;3.85;;
62110;SDS011;48102;47.526;19.072;2023-03-20T05:29:23;9.15;;;4.57;;
62110;SDS011;48102;47.526;19.072;2023-03-20T05:32:29;7.50;;;4.20;;
62110;SDS011;48102;47.526;19.072;2023-03-20T05:35:32;4.62;;;4.12;;
62110;SDS011;48102;47.526;19.072;2023-03-20T05:38:36;5.05;;;4.25;;
62110;SDS011;48102;47.526;19.072;2023-03-20T05:41:41;6.37;;;4.43;;
62110;SDS011;48102;47.526;19.072;2023-03-20T05:44:48;5.95;;;4.18;;
62110;SDS011;48102;47.526;19.072;2023-03-20T05:47:51;6.07;;;4.72;;
62110;SDS011;48102;47.526;19.072;2023-03-20T05:50:54;6.18;;;3.62;;
62110;SDS011;48102;47.526;19.072;2023-03-20T05:57:01;4.60;;;3.12;;
62110;SDS011;48102;47.526;19.072;2023-03-20T06:00:05;5.22;;;3.83;;
62110;SDS011;48102;47.526;19.072;2023-03-20T06:03:19;5.45;;;4.00;;
62110;SDS011;48102;47.526;19.072;2023-03-20T06:06:24;3.95;;;3.20;;
62110;SDS011;48102;47.526;19.072;2023-03-20T06:09:27;6.85;;;4.05;;
62110;SDS011;48102;47.526;19.072;2023-03-20T06:12:31;7.00;;;3.95;;
62110;SDS011;48102;47.526;19.072;2023-03-20T06:15:37;15.13;;;4.37;;
62110;SDS011;48102;47.526;19.072;2023-03-20T06:18:43;6.45;;;4.50;;
62110;SDS011;48102;47.526;19.072;2023-03-20T06:21:46;8.00;;;4.82;;
62110;SDS011;48102;47.526;19.072;2023-03-20T06:24:50;6.32;;;4.85;;
62110;SDS011;48102;47.526;19.072;2023-03-20T06:30:56;8.02;;;5.05;;
62110;SDS011;48102;47.526;19.072;2023-03-20T06:34:00;7.30;;;4.87;;
62110;SDS011;48102;47.526;19.072;2023-03-20T06:37:11;7.55;;;4.45;;
62110;SDS011;48102;47.526;19.072;2023-03-20T06:40:14;7.40;;;5.75;;
62110;SDS011;48102;47.526;19.072;2023-03-20T06:43:17;6.70;;;4.57;;
62110;SDS011;48102;47.526;19.072;2023-03-20T06:46:21;9.30;;;5.12;;
62110;SDS011;48102;47.526;19.072;2023-03-20T06:49:24;7.68;;;4.90;;
62110;SDS011;48102;47.526;19.072;2023-03-20T06:52:27;12.25;;;5.95;;
62110;SDS011;48102;47.526;19.072;2023-03-20T06:55:30;10.73;;;5.25;;
62110;SDS011;48102;47.526;19.072;2023-03-20T06:58:33;8.07;;;5.60;;
62110;SDS011;48102;47.526;19.072;2023-03-20T07:01:36;13.50;;;5.12;;
62110;SDS011;48102;47.526;19.072;2023-03-20T07:04:41;10.77;;;5.30;;
62110;SDS011;48102;47.526;19.072;2023-03-20T07:07:44;8.50;;;5.05;;
62110;SDS011;48102;47.526;19.072;2023-03-20T07:10:48;6.45;;;5.03;;
62110;SDS011;48102;47.526;19.072;2023-03-20T07:13:51;9.20;;;5.53;;
62110;SDS011;48102;47.526;19.072;2023-03-20T07:16:55;8.68;;;5.57;;
62110;SDS011;48102;47.526;19.072;2023-03-20T07:23:01;5.90;;;4.22;;
62110;SDS011;48102;47.526;19.072;2023-03-20T07:26:05;6.18;;;4.65;;
62110;SDS011;48102;47.526;19.072;2023-03-20T07:29:08;8.68;;;4.80;;
62110;SDS011;48102;47.526;19.072;2023-03-20T07:32:12;8.05;;;5.37;;
62110;SDS011;48102;47.526;19.072;2023-03-20T07:38:18;15.60;;;5.47;;
62110;SDS011;48102;47.526;19.072;2023-03-20T07:41:25;7.78;;;4.93;;
62110;SDS011;48102;47.526;19.072;2023-03-20T07:44:30;7.53;;;5.55;;
62110;SDS011;48102;47.526;19.072;2023-03-20T07:47:33;6.40;;;4.55;;
62110;SDS011;48102;47.526;19.072;2023-03-20T07:50:38;6.72;;;4.53;;
62110;SDS011;48102;47.526;19.072;2023-03-20T07:53:41;6.43;;;4.90;;
62110;SDS011;48102;47.526;19.072;2023-03-20T07:56:44;7.85;;;4.20;;
62110;SDS011;48102;47.526;19.072;2023-03-20T07:59:48;4.82;;;3.83;;
62110;SDS011;48102;47.526;19.072;2023-03-20T08:02:51;5.60;;;3.80;;
62110;SDS011;48102;47.526;19.072;2023-03-20T08:05:54;10.10;;;3.75;;
62110;SDS011;48102;47.526;19.072;2023-03-20T08:08:57;4.47;;;3.58;;
62110;SDS011;48102;47.526;19.072;2023-03-20T08:12:00;7.62;;;3.47;;
62110;SDS011;48102;47.526;19.072;2023-03-20T08:15:03;8.63;;;4.25;;
62110;SDS011;48102;47.526;19.072;2023-03-20T08:18:07;4.15;;;3.50;;
62110;SDS011;48102;47.526;19.072;2023-03-20T08:21:09;6.85;;;3.87;;
62110;SDS011;48102;47.526;19.072;2023-03-20T08:24:13;6.85;;;3.97;;
62110;SDS011;48102;47.526;19.072;2023-03-20T08:27:15;4.85;;;3.40;;
62110;SDS011;48102;47.526;19.072;2023-03-20T08:33:21;3.97;;;2.90;;
62110;SDS011;48102;47.526;19.072;2023-03-20T08:36:24;6.35;;;3.20;;
62110;SDS011;48102;47.526;19.072;2023-03-20T08:39:27;4.53;;;3.03;;
62110;SDS011;48102;47.526;19.072;2023-03-20T08:45:33;6.07;;;3.27;;
62110;SDS011;48102;47.526;19.072;2023-03-20T08:48:36;7.65;;;3.87;;
62110;SDS011;48102;47.526;19.072;2023-03-20T08:54:42;8.02;;;3.47;;
62110;SDS011;48102;47.526;19.072;2023-03-20T08:57:45;6.00;;;3.83;;
62110;SDS011;48102;47.526;19.072;2023-03-20T09:00:48;5.95;;;3.33;;
62110;SDS011;48102;47.526;19.072;2023-03-20T09:03:52;6.62;;;4.03;;
62110;SDS011;48102;47.526;19.072;2023-03-20T09:06:55;3.72;;;2.83;;
62110;SDS011;48102;47.526;19.072;2023-03-20T09:13:00;4.07;;;2.87;;
62110;SDS011;48102;47.526;19.072;2023-03-20T09:16:17;4.90;;;3.40;;
62110;SDS011;48102;47.526;19.072;2023-03-20T09:19:21;5.37;;;3.28;;
62110;SDS011;48102;47.526;19.072;2023-03-20T09:25:27;6.10;;;3.22;;
62110;SDS011;48102;47.526;19.072;2023-03-20T09:28:30;5.00;;;3.08;;
62110;SDS011;48102;47.526;19.072;2023-03-20T09:34:35;5.50;;;3.30;;
62110;SDS011;48102;47.526;19.072;2023-03-20T09:40:54;4.40;;;2.60;;
62110;SDS011;48102;47.526;19.072;2023-03-20T09:47:29;4.57;;;3.15;;
62110;SDS011;48102;47.526;19.072;2023-03-20T09:50:42;3.20;;;2.55;;
62110;SDS011;48102;47.526;19.072;2023-03-20T09:53:54;5.35;;;2.95;;
62110;SDS011;48102;47.526;19.072;2023-03-20T09:57:03;6.05;;;3.22;;
62110;SDS011;48102;47.526;19.072;2023-03-20T10:00:21;5.22;;;3.25;;
62110;SDS011;48102;47.526;19.072;2023-03-20T10:03:38;7.15;;;3.80;;
62110;SDS011;48102;47.526;19.072;2023-03-20T10:06:45;6.82;;;3.85;;
62110;SDS011;48102;47.526;19.072;2023-03-20T10:09:48;4.20;;;3.47;;
62110;SDS011;48102;47.526;19.072;2023-03-20T10:19:44;7.78;;;4.05;;
62110;SDS011;48102;47.526;19.072;2023-03-20T10:22:57;5.95;;;3.70;;
62110;SDS011;48102;47.526;19.072;2023-03-20T10:26:11;6.90;;;3.08;;
62110;SDS011;48102;47.526;19.072;2023-03-20T10:32:49;5.15;;;3.60;;
62110;SDS011;48102;47.526;19.072;2023-03-20T10:42:28;5.68;;;3.55;;
62110;SDS011;48102;47.526;19.072;2023-03-20T10:45:55;4.87;;;3.53;;
62110;SDS011;48102;47.526;19.072;2023-03-20T10:52:24;6.35;;;3.87;;
62110;SDS011;48102;47.526;19.072;2023-03-20T10:55:31;7.43;;;3.83;;
62110;SDS011;48102;47.526;19.072;2023-03-20T10:58:40;5.32;;;4.05;;
62110;SDS011;48102;47.526;19.072;2023-03-20T11:01:46;6.20;;;3.70;;
62110;SDS011;48102;47.526;19.072;2023-03-20T11:04:49;4.20;;;3.40;;
62110;SDS011;48102;47.526;19.072;2023-03-20T11:08:29;6.65;;;3.47;;
62110;SDS011;48102;47.526;19.072;2023-03-20T11:11:25;5.57;;;3.72;;
62110;SDS011;48102;47.526;19.072;2023-03-20T11:14:34;5.50;;;3.58;;
62110;SDS011;48102;47.526;19.072;2023-03-20T11:17:39;4.95;;;3.85;;
62110;SDS011;48102;47.526;19.072;2023-03-20T11:20:50;7.55;;;4.20;;
62110;SDS011;48102;47.526;19.072;2023-03-20T11:23:53;5.18;;;3.70;;
62110;SDS011;48102;47.526;19.072;2023-03-20T11:27:03;5.90;;;4.30;;
62110;SDS011;48102;47.526;19.072;2023-03-20T11:30:26;7.47;;;4.05;;
62110;SDS011;48102;47.526;19.072;2023-03-20T11:33:30;4.72;;;3.97;;
62110;SDS011;48102;47.526;19.072;2023-03-20T11:36:34;4.53;;;3.53;;
62110;SDS011;48102;47.526;19.072;2023-03-20T11:39:39;5.68;;;3.75;;
62110;SDS011;48102;47.526;19.072;2023-03-20T11:46:03;8.32;;;4.43;;
62110;SDS011;48102;47.526;19.072;2023-03-20T11:49:19;8.18;;;3.85;;
62110;SDS011;48102;47.526;19.072;2023-03-20T11:52:30;6.07;;;4.10;;
62110;SDS011;48102;47.526;19.072;2023-03-20T11:55:35;5.53;;;4.32;;
62110;SDS011;48102;47.526;19.072;2023-03-20T11:58:45;8.27;;;4.55;;
62110;SDS011;48102;47.526;19.072;2023-03-20T12:02:16;7.30;;;4.55;;
62110;SDS011;48102;47.526;19.072;2023-03-20T12:05:36;5.30;;;4.20;;
62110;SDS011;48102;47.526;19.072;2023-03-20T12:08:42;7.15;;;3.92;;
62110;SDS011;48102;47.526;19.072;2023-03-20T12:11:59;6.80;;;4.03;;
62110;SDS011;48102;47.526;19.072;2023-03-20T12:18:35;8.18;;;4.70;;
62110;SDS011;48102;47.526;19.072;2023-03-20T12:21:45;5.68;;;4.50;;
62110;SDS011;48102;47.526;19.072;2023-03-20T12:24:57;6.43;;;4.37;;
62110;SDS011;48102;47.526;19.072;2023-03-20T12:31:31;7.18;;;4.30;;
62110;SDS011;48102;47.526;19.072;2023-03-20T12:34:58;8.88;;;4.97;;
62110;SDS011;48102;47.526;19.072;2023-03-20T12:38:30;5.10;;;3.90;;
62110;SDS011;48102;47.526;19.072;2023-03-20T13:01:57;5.15;;;4.25;;
62110;SDS011;48102;47.526;19.072;2023-03-20T13:08:46;6.68;;;5.00;;
62110;SDS011;48102;47.526;19.072;2023-03-20T13:28:48;11.40;;;4.80;;
62110;SDS011;48102;47.526;19.072;2023-03-20T13:35:04;6.65;;;4.72;;
62110;SDS011;48102;47.526;19.072;2023-03-20T13:38:30;7.75;;;4.40;;
62110;SDS011;48102;47.526;19.072;2023-03-20T13:41:37;7.03;;;4.60;;
62110;SDS011;48102;47.526;19.072;2023-03-20T13:44:41;8.75;;;4.62;;
62110;SDS011;48102;47.526;19.072;2023-03-20T13:47:46;7.87;;;4.55;;
62110;SDS011;48102;47.526;19.072;2023-03-20T13:50:58;7.72;;;5.12;;
62110;SDS011;48102;47.526;19.072;2023-03-20T14:04:34;7.00;;;4.60;;
62110;SDS011;48102;47.526;19.072;2023-03-20T14:07:38;5.57;;;4.37;;
62110;SDS011;48102;47.526;19.072;2023-03-20T14:10:45;5.22;;;4.35;;
62110;SDS011;48102;47.526;19.072;2023-03-20T14:17:27;7.05;;;5.03;;
62110;SDS011;48102;47.526;19.072;2023-03-20T14:20:33;11.63;;;4.78;;
62110;SDS011;48102;47.526;19.072;2023-03-20T14:27:19;6.12;;;4.62;;
62110;SDS011;48102;47.526;19.072;2023-03-20T14:30:43;5.50;;;4.57;;
62110;SDS011;48102;47.526;19.072;2023-03-20T14:33:52;8.68;;;4.55;;
62110;SDS011;48102;47.526;19.072;2023-03-20T14:40:37;12.37;;;4.80;;
62110;SDS011;48102;47.526;19.072;2023-03-20T14:43:55;7.03;;;5.00;;
62110;SDS011;48102;47.526;19.072;2023-03-20T14:57:32;6.68;;;4.60;;
62110;SDS011;48102;47.526;19.072;2023-03-20T15:00:55;5.47;;;4.35;;
62110;SDS011;48102;47.526;19.072;2023-03-20T15:04:05;6.53;;;4.55;;
62110;SDS011;48102;47.526;19.072;2023-03-20T15:07:30;6.40;;;4.53;;
62110;SDS011;48102;47.526;19.072;2023-03-20T15:10:45;7.40;;;5.00;;
62110;SDS011;48102;47.526;19.072;2023-03-20T15:13:51;4.60;;;4.05;;
62110;SDS011;48102;47.526;19.072;2023-03-20T15:16:56;5.43;;;4.45;;
62110;SDS011;48102;47.526;19.072;2023-03-20T15:20:05;7.40;;;4.10;;
62110;SDS011;48102;47.526;19.072;2023-03-20T15:23:19;5.72;;;4.07;;
62110;SDS011;48102;47.526;19.072;2023-03-20T15:26:22;11.12;;;5.25;;
62110;SDS011;48102;47.526;19.072;2023-03-20T15:29:26;7.10;;;4.47;;
62110;SDS011;48102;47.526;19.072;2023-03-20T15:32:31;6.80;;;4.30;;
62110;SDS011;48102;47.526;19.072;2023-03-20T15:35:35;7.03;;;3.70;;
62110;SDS011;48102;47.526;19.072;2023-03-20T15:38:40;8.68;;;4.28;;
62110;SDS011;48102;47.526;19.072;2023-03-20T15:41:44;4.53;;;4.07;;
62110;SDS011;48102;47.526;19.072;2023-03-20T15:44:50;8.52;;;4.18;;
62110;SDS011;48102;47.526;19.072;2023-03-20T15:47:58;8.55;;;4.40;;
62110;SDS011;48102;47.526;19.072;2023-03-20T15:51:14;7.20;;;3.85;;
62110;SDS011;48102;47.526;19.072;2023-03-20T15:54:18;6.50;;;3.58;;
62110;SDS011;48102;47.526;19.072;2023-03-20T15:57:30;4.68;;;3.53;;
62110;SDS011;48102;47.526;19.072;2023-03-20T16:00:38;5.68;;;3.50;;
62110;SDS011;48102;47.526;19.072;2023-03-20T16:03:45;3.70;;;3.15;;
62110;SDS011;48102;47.526;19.072;2023-03-20T16:06:58;5.28;;;3.45;;
62110;SDS011;48102;47.526;19.072;2023-03-20T16:10:02;3.90;;;3.00;;
62110;SDS011;48102;47.526;19.072;2023-03-20T16:13:18;6.30;;;3.12;;
62110;SDS011;48102;47.526;19.072;2023-03-20T16:16:21;5.45;;;3.00;;
62110;SDS011;48102;47.526;19.072;2023-03-20T16:19:26;4.12;;;2.50;;
62110;SDS011;48102;47.526;19.072;2023-03-20T16:22:30;4.22;;;3.00;;
62110;SDS011;48102;47.526;19.072;2023-03-20T16:25:35;3.37;;;2.92;;
62110;SDS011;48102;47.526;19.072;2023-03-20T16:28:39;6.00;;;3.40;;
62110;SDS011;48102;47.526;19.072;2023-03-20T16:31:44;6.00;;;3.47;;
